Pagrindinis puslapis
METAR-TAF:

METAR-TAF

Oro uostai :

Takna, Peru

platuma: 18-04S, ilguma: 070-18W, Aukštis: 468 m

Dabartinis oras

Ataskaita buvo paskelbta 33 minutes, ne 10:00 UTC
Vėjas 5 kt iš Pietų/Pietvakarių
Temperatūra 13°C
Drėgmė 82%
Slėgis 1018 hPa
Matomumas 10 km arba daugiau
Apsiniaukę ne aukštis 2000 ft

METAR: SPTN 171000Z 21005KT 9999 OVC020 13/10 Q1018 RMK PP000

Laikas: 05:33 (10:33 UTC)

Prognozė

Ataskaita buvo paskelbta 5 valandos ir 33 minutes, ne 05:00 UTC
Prognozė galioja nuo 17 metu 06 UTC su 18 metu 06 UTC
Vėjas 3 kt iš Pietvakarių
Matomumas: 8000 m
Apsiniaukę ne aukštis 2000 ft
Nuo 17 metu 1500 UTC
Vėjas 5 kt iš Vakarų/Pietvakarių
Matomumas 10 km arba daugiau
Su prošvaistėmis ne aukštis 2500 ft
Nuo 17 metu 1900 UTC
Vėjas 10 kt iš Pietvakarių
Matomumas 10 km arba daugiau
Mažai debesys ne aukštis 3000 ft
Nuo 17 metu 2300 UTC
Vėjas 5 kt iš Pietvakarių
Apsiniaukę ne aukštis 2500 ft

TAF: SPTN 170500Z 1706/1806 23003KT 8000 OVC020 TX18/1719Z TN11/1710Z FM171500 25005KT 9999 BKN025 FM171900 22010KT 9999 FEW030 FM172300 23005KT OVC025

Orai ataskaitas ir orų prognozės (METAR, TAF).

turimą stotys yra geltonos ir raudonos taškus žemėlapyje.

Perkelti pele per norėdami pamatyti stoties vardą.

Tada spustelėkite, norėdami matyti oro stebėjimo ir prognozės.

Norėdami pakeisti žemėlapį: spustelėkite ant žalios mygtukų su juodo kryžiaus žemyn,; žalią mygtuką su brūkšneliu, jei norite nutolinti; arba žalių rodyklių gretimoms žemėlapius.


METAR-TAF: